首页
METAR-TAF:

METAR-TAF

机场 :

Dickinson, 北达科他州, 美国

纬度: 46-47-50N, 经度: 102-48-07W, 海拔: 790米

当前天气观测

该预报发布于1小时和17分钟前的08:56 UTC
风速6节,风向西转西北
温度 5°C
湿度 93%
气压 1021 hPa
能見度: 16.1公里
天空无云

METAR: KDIK 190856Z AUTO 29006KT 10SM CLR 05/04 A3016 RMK AO2 SLP220 T00500044 50005

时间: 04:13 (10:13 UTC)

预报

该预报发布于4小时和45分钟前的05:28 UTC
预报有效从19日的 06点(UTC)到 20日的 06点(UTC)
风速6节,风向西转西北
能見度: 10公里
阴天层高于4500英尺
从 19日的 0900点(UTC)
风速5节,风向西
能見度: 10公里
散云层高于25000英尺
从 19日的 1500点(UTC)
风速8节,风向
能見度: 10公里
天空无云
从 19日的 2000点(UTC)
风速12节,风向南转南东
能見度: 10公里
散云层高于25000英尺
从 20日的 0100点(UTC)
风速9节,风向东南
能見度: 10公里
多云层高于10000英尺

TAF: KDIK 190528Z 1906/2006 30006KT P6SM OVC045 FM190900 27005KT P6SM SCT250 FM191500 18008KT P6SM SKC FM192000 16012KT P6SM SCT250 FM200100 13009KT P6SM BKN100

超过4000个机场的气象观测和天气预报(METAR&TAF报告)。

可查询的气象台以黄色和红色小点在地图上表示。

将鼠标移到小点上方,可查看气象台名称。

然后点击查看天气观测和预报。

如需切换地图:点击带黑十字的绿色按钮放大地图;点击带横线的绿色按钮缩小地图;或者点击绿色箭头查看邻近地区的地图。


METAR-TAF: